Time;durP1;ratioP1;P1;durP2;ratioP2;P2;SDS_P1;SDS_P2;PMS_P1;PMS_P2;Temp;Humidity;BMP_temperature;BMP_pressure;BME280_temperature;BME280_humidity;BME280_pressure;Samples;Min_cycle;Max_cycle;Signal;HPM_P1;HPM_P2
2021/09/26 00:00:42;;;;;;;17.47;14.30;;;15.20;99.90;;;;;;5045096;28;20200;-72
2021/09/26 00:03:08;;;;;;;21.00;15.07;;;15.10;99.90;;;;;;5052505;28;20204;-72
2021/09/26 00:05:34;;;;;;;22.37;14.80;;;15.10;99.90;;;;;;5049301;28;20176;-72
2021/09/26 00:07:59;;;;;;;24.30;14.80;;;15.10;99.90;;;;;;5051170;28;20669;-72
2021/09/26 00:10:25;;;;;;;20.07;15.00;;;15.10;99.90;;;;;;5046480;28;20603;-72
2021/09/26 00:12:51;;;;;;;20.60;14.43;;;15.10;99.90;;;;;;5044076;28;20172;-72
2021/09/26 00:15:20;;;;;;;14.80;13.00;;;15.10;99.90;;;;;;5048410;28;20578;-72
2021/09/26 00:17:47;;;;;;;18.97;14.93;;;15.10;99.90;;;;;;5051928;28;20418;-72
2021/09/26 00:20:14;;;;;;;16.47;12.83;;;15.10;99.90;;;;;;5043755;28;20427;-72
2021/09/26 00:22:39;;;;;;;15.43;12.43;;;15.10;99.90;;;;;;5045790;28;20445;-72
2021/09/26 00:25:06;;;;;;;15.00;10.70;;;15.20;99.90;;;;;;5046178;28;20411;-72
2021/09/26 00:27:31;;;;;;;15.63;10.67;;;15.20;99.90;;;;;;5050005;28;20191;-72
2021/09/26 00:29:57;;;;;;;11.47;9.40;;;15.20;99.90;;;;;;5044707;28;20407;-72
2021/09/26 00:32:22;;;;;;;12.63;9.97;;;15.20;99.90;;;;;;5047829;28;20180;-72
2021/09/26 00:34:48;;;;;;;12.60;9.63;;;15.20;99.90;;;;;;5042887;28;20184;-72
2021/09/26 00:37:14;;;;;;;8.30;7.50;;;15.30;99.90;;;;;;5047278;28;20649;-72
2021/09/26 00:39:40;;;;;;;10.60;8.53;;;15.30;99.90;;;;;;5048313;28;20207;-72
2021/09/26 00:42:05;;;;;;;9.63;8.30;;;15.40;99.90;;;;;;5052743;28;20982;-72
2021/09/26 00:44:32;;;;;;;8.93;8.03;;;15.40;99.90;;;;;;5048532;28;20176;-72
2021/09/26 00:46:58;;;;;;;10.50;8.27;;;15.50;99.90;;;;;;5049616;28;20170;-72
2021/09/26 00:49:24;;;;;;;9.57;8.10;;;15.50;99.90;;;;;;5050857;28;20457;-72
2021/09/26 00:51:50;;;;;;;10.57;8.53;;;15.50;99.90;;;;;;5047017;28;20435;-72
2021/09/26 00:54:17;;;;;;;9.33;8.40;;;15.60;99.90;;;;;;5050729;28;20430;-72
2021/09/26 00:56:47;;;;;;;10.20;8.53;;;15.60;99.90;;;;;;5051006;28;20415;-72
2021/09/26 00:59:14;;;;;;;9.43;7.50;;;15.60;99.90;;;;;;5051413;28;20438;-72
2021/09/26 01:01:39;;;;;;;10.37;7.63;;;15.60;99.90;;;;;;5045342;28;20455;-72
2021/09/26 01:04:05;;;;;;;9.40;7.17;;;15.60;99.90;;;;;;5045982;28;20413;-72
2021/09/26 01:09:30;;;;;;;12.00;6.60;;;15.70;99.90;;;;;;5064569;28;20528;-73
2021/09/26 01:12:05;;;;;;;12.17;9.30;;;15.70;99.90;;;;;;5052429;28;20485;-73
2021/09/26 01:17:43;;;;;;;8.90;8.00;;;15.70;99.90;;;;;;5127400;27;20508;-74
2021/09/26 01:20:28;;;;;;;9.53;7.93;;;15.70;99.90;;;;;;5126348;28;20410;-74
2021/09/26 01:31:16;;;;;;;8.90;8.07;;;15.80;99.90;;;;;;5064457;28;20646;-72
2021/09/26 01:33:48;;;;;;;9.97;8.67;;;15.80;99.90;;;;;;5050200;28;20857;-72
2021/09/26 01:36:25;;;;;;;11.70;8.50;;;15.80;99.90;;;;;;5053597;28;20755;-73
2021/09/26 01:47:11;;;;;;;10.30;8.90;;;15.90;99.90;;;;;;5063931;28;20574;-71
2021/09/26 01:49:44;;;;;;;9.37;8.37;;;15.90;99.90;;;;;;5067446;28;20417;-71
2021/09/26 01:52:21;;;;;;;10.53;8.67;;;16.00;99.90;;;;;;5067626;28;20448;-71
2021/09/26 01:54:48;;;;;;;9.17;8.23;;;16.00;99.90;;;;;;5066797;28;20451;-71
2021/09/26 01:57:19;;;;;;;8.77;7.70;;;16.00;99.90;;;;;;5069920;28;20437;-71
2021/09/26 01:59:50;;;;;;;8.57;7.67;;;16.00;99.90;;;;;;5065088;28;20487;-71
2021/09/26 02:02:17;;;;;;;10.43;7.63;;;16.00;99.90;;;;;;5064774;28;20453;-71
2021/09/26 02:04:45;;;;;;;8.87;7.60;;;16.00;99.90;;;;;;5067002;28;20475;-71
2021/09/26 02:07:12;;;;;;;10.70;7.40;;;16.10;99.90;;;;;;5065274;28;20850;-71
2021/09/26 02:09:37;;;;;;;9.20;7.33;;;16.00;99.90;;;;;;5068845;28;20425;-71
2021/09/26 02:12:04;;;;;;;9.07;8.17;;;16.10;99.90;;;;;;5060552;28;20414;-71
2021/09/26 02:14:31;;;;;;;9.60;7.30;;;16.10;99.90;;;;;;5058293;28;20172;-71
2021/09/26 02:16:57;;;;;;;9.10;8.00;;;16.10;99.90;;;;;;5063360;28;20937;-71
2021/09/26 02:19:23;;;;;;;8.27;7.47;;;16.10;99.90;;;;;;5064416;28;20430;-71
2021/09/26 02:21:50;;;;;;;8.70;7.20;;;16.10;99.90;;;;;;5061645;28;20454;-71
2021/09/26 02:24:16;;;;;;;9.67;7.37;;;16.10;99.90;;;;;;5061738;28;20445;-71
2021/09/26 02:26:42;;;;;;;9.03;6.33;;;16.10;99.90;;;;;;5059160;28;20624;-71
2021/09/26 02:29:07;;;;;;;7.30;6.50;;;16.10;99.90;;;;;;5061843;28;20417;-71
2021/09/26 02:31:36;;;;;;;9.77;7.13;;;16.10;99.90;;;;;;5060282;28;20203;-71
2021/09/26 02:34:02;;;;;;;8.40;6.43;;;16.20;99.90;;;;;;5063905;28;20524;-71
2021/09/26 02:36:28;;;;;;;5.73;5.23;;;16.20;99.90;;;;;;5061332;28;20471;-69
2021/09/26 02:38:53;;;;;;;6.50;5.90;;;16.20;99.90;;;;;;5063755;28;20185;-68
2021/09/26 02:41:38;;;;;;;8.93;6.10;;;16.20;99.90;;;;;;5066211;28;20319;-68
2021/09/26 02:44:14;;;;;;;7.10;5.90;;;16.30;99.90;;;;;;5063521;28;20183;-68
2021/09/26 02:46:44;;;;;;;6.90;6.10;;;16.30;99.90;;;;;;5064107;28;20466;-68
2021/09/26 02:49:10;;;;;;;5.90;5.30;;;16.30;99.90;;;;;;5060648;28;20449;-68
2021/09/26 02:51:38;;;;;;;6.30;5.60;;;16.30;99.90;;;;;;5065112;28;20520;-72
2021/09/26 02:54:08;;;;;;;6.70;6.00;;;16.40;99.90;;;;;;5060751;28;20454;-72
2021/09/26 02:56:34;;;;;;;6.90;5.50;;;16.40;99.90;;;;;;5058161;28;20517;-72
2021/09/26 02:59:00;;;;;;;7.33;5.80;;;16.40;99.90;;;;;;5048325;28;20470;-72
2021/09/26 03:01:27;;;;;;;7.60;5.40;;;16.40;99.90;;;;;;5051781;28;20237;-72
2021/09/26 03:03:59;;;;;;;6.63;5.83;;;16.40;99.90;;;;;;5046473;28;20829;-72
2021/09/26 03:06:25;;;;;;;7.90;5.40;;;16.40;99.90;;;;;;5042899;28;20461;-72
2021/09/26 03:08:50;;;;;;;5.77;4.90;;;16.40;99.90;;;;;;5049241;28;20414;-72
2021/09/26 03:11:16;;;;;;;8.50;5.90;;;16.40;99.90;;;;;;5050580;28;20164;-72
2021/09/26 03:13:41;;;;;;;5.50;4.90;;;16.40;99.90;;;;;;5046276;28;20184;-72
2021/09/26 03:16:07;;;;;;;6.10;4.90;;;16.40;99.90;;;;;;5052633;28;20179;-72
2021/09/26 03:18:33;;;;;;;6.50;5.80;;;16.40;99.90;;;;;;5041560;28;20180;-72
2021/09/26 03:20:58;;;;;;;7.10;5.40;;;16.40;99.90;;;;;;5046866;28;20632;-72
2021/09/26 03:23:24;;;;;;;6.80;5.70;;;16.40;99.90;;;;;;5045772;28;20654;-72
2021/09/26 03:25:50;;;;;;;6.37;5.30;;;16.50;99.90;;;;;;5046597;28;20707;-72
2021/09/26 03:28:15;;;;;;;6.63;5.93;;;16.50;99.90;;;;;;5042633;28;20177;-72
2021/09/26 03:30:41;;;;;;;6.10;5.50;;;16.50;99.90;;;;;;5047196;28;20207;-72
2021/09/26 03:33:06;;;;;;;7.87;6.73;;;16.50;99.90;;;;;;5050774;28;20177;-72
2021/09/26 03:35:32;;;;;;;7.33;5.93;;;16.50;99.90;;;;;;5045678;28;20188;-72
2021/09/26 03:37:57;;;;;;;7.37;5.93;;;16.50;99.90;;;;;;5048573;28;20556;-72
2021/09/26 03:40:23;;;;;;;7.33;6.17;;;16.50;99.90;;;;;;5044931;28;20188;-72
2021/09/26 03:42:49;;;;;;;7.17;6.47;;;16.50;99.90;;;;;;5053570;28;20176;-72
2021/09/26 03:45:14;;;;;;;6.17;5.60;;;16.40;99.90;;;;;;5050351;28;20207;-72
2021/09/26 03:47:40;;;;;;;6.90;6.10;;;16.40;99.90;;;;;;5046320;28;20183;-72
2021/09/26 03:50:07;;;;;;;9.87;6.07;;;16.40;99.90;;;;;;5050908;28;20634;-72
2021/09/26 03:52:34;;;;;;;7.40;6.50;;;16.40;99.90;;;;;;5046078;28;20543;-72
2021/09/26 03:55:01;;;;;;;7.40;6.67;;;16.40;99.90;;;;;;5050291;28;20414;-72
2021/09/26 03:57:26;;;;;;;11.00;6.20;;;16.40;99.90;;;;;;5042289;28;20418;-72
2021/09/26 03:59:52;;;;;;;8.43;6.50;;;16.50;99.90;;;;;;5046551;28;20438;-72
2021/09/26 04:02:17;;;;;;;8.10;6.03;;;16.40;99.90;;;;;;5045993;28;20191;-72
2021/09/26 04:04:43;;;;;;;6.30;5.60;;;16.50;99.90;;;;;;5045755;28;20176;-72
2021/09/26 04:07:08;;;;;;;8.30;6.80;;;16.50;99.90;;;;;;5044506;28;20674;-72
2021/09/26 04:09:34;;;;;;;6.10;5.50;;;16.50;99.90;;;;;;5040812;28;20180;-72
2021/09/26 04:12:00;;;;;;;9.27;5.80;;;16.50;99.90;;;;;;5045866;28;20256;-72
2021/09/26 04:14:25;;;;;;;6.70;5.90;;;16.50;99.90;;;;;;5042137;28;20172;-72
2021/09/26 04:16:52;;;;;;;8.83;5.93;;;16.50;99.90;;;;;;5042231;28;20182;-72
2021/09/26 04:19:18;;;;;;;6.60;5.50;;;16.50;99.90;;;;;;5041503;28;20207;-72
2021/09/26 04:21:44;;;;;;;5.83;5.23;;;16.50;99.90;;;;;;5041379;28;20431;-73
2021/09/26 04:24:10;;;;;;;6.70;6.00;;;16.50;99.90;;;;;;5047026;28;20923;-73
2021/09/26 04:26:36;;;;;;;7.60;5.70;;;16.50;99.90;;;;;;5046105;28;20463;-73
2021/09/26 04:29:02;;;;;;;6.47;5.87;;;16.50;99.90;;;;;;5049747;28;20491;-72
2021/09/26 04:31:27;;;;;;;6.80;5.43;;;16.50;99.90;;;;;;5042689;28;20912;-72
2021/09/26 04:33:53;;;;;;;6.60;5.90;;;16.50;99.90;;;;;;5049180;28;20184;-72
2021/09/26 04:36:19;;;;;;;7.00;5.73;;;16.50;99.90;;;;;;5046652;28;20184;-72
2021/09/26 04:38:44;;;;;;;7.07;5.63;;;16.50;99.90;;;;;;5051720;28;20652;-72
2021/09/26 04:41:10;;;;;;;6.73;5.50;;;16.50;99.90;;;;;;5046454;28;20188;-72
2021/09/26 04:43:35;;;;;;;5.80;5.20;;;16.50;99.90;;;;;;5045936;28;20603;-72
2021/09/26 04:46:01;;;;;;;7.83;5.67;;;16.50;99.90;;;;;;5046166;28;20208;-72
2021/09/26 04:48:27;;;;;;;6.63;5.87;;;16.50;99.90;;;;;;5049480;28;20255;-72
2021/09/26 04:50:52;;;;;;;6.73;6.07;;;16.50;99.90;;;;;;5048132;28;20188;-72
2021/09/26 04:53:18;;;;;;;5.83;5.23;;;16.50;99.90;;;;;;5052692;28;20174;-73
2021/09/26 04:55:43;;;;;;;5.83;5.33;;;16.60;99.90;;;;;;5042193;28;20192;-73
2021/09/26 04:58:10;;;;;;;5.30;4.80;;;16.60;99.90;;;;;;5050790;28;20215;-72
2021/09/26 05:00:37;;;;;;;6.03;5.37;;;16.60;99.90;;;;;;5046952;28;20207;-72
2021/09/26 05:03:03;;;;;;;8.97;6.67;;;16.60;99.90;;;;;;5048571;28;20427;-72
2021/09/26 05:05:29;;;;;;;6.83;6.13;;;16.60;99.90;;;;;;5048611;28;20463;-72
2021/09/26 05:07:55;;;;;;;8.17;6.30;;;16.60;99.90;;;;;;5046898;28;20498;-72
2021/09/26 05:10:21;;;;;;;7.43;5.93;;;16.60;99.90;;;;;;5042437;28;20173;-72
2021/09/26 05:12:47;;;;;;;7.10;6.40;;;16.60;99.90;;;;;;5044596;28;20824;-72
2021/09/26 05:15:13;;;;;;;6.63;5.93;;;16.60;99.90;;;;;;5044845;28;20198;-72
2021/09/26 05:17:38;;;;;;;7.93;7.13;;;16.60;99.90;;;;;;5040600;28;20608;-72
2021/09/26 05:20:05;;;;;;;9.20;7.20;;;16.60;99.90;;;;;;5044069;28;20427;-72
2021/09/26 05:22:31;;;;;;;8.57;7.43;;;16.60;99.90;;;;;;5040337;28;20176;-73
2021/09/26 05:24:57;;;;;;;7.90;6.67;;;16.60;99.90;;;;;;5044109;28;20788;-73
2021/09/26 05:27:23;;;;;;;9.30;6.93;;;16.50;99.90;;;;;;5042983;28;20184;-73
2021/09/26 05:29:48;;;;;;;8.27;7.40;;;16.50;99.90;;;;;;5042359;28;20204;-73
2021/09/26 05:32:14;;;;;;;8.13;7.20;;;16.50;99.90;;;;;;5041138;28;20873;-73
2021/09/26 05:34:40;;;;;;;7.23;6.20;;;16.50;99.90;;;;;;5040878;28;20541;-73
2021/09/26 05:37:06;;;;;;;7.33;6.60;;;16.50;99.90;;;;;;5048359;28;20187;-73
2021/09/26 05:39:32;;;;;;;6.90;6.20;;;16.50;99.90;;;;;;5045046;28;20445;-73
2021/09/26 05:41:58;;;;;;;8.23;6.97;;;16.50;99.90;;;;;;5047787;28;20199;-72
2021/09/26 05:44:24;;;;;;;8.33;6.90;;;16.50;99.90;;;;;;5044402;28;20176;-72
2021/09/26 05:46:50;;;;;;;8.47;7.20;;;16.50;99.90;;;;;;5045840;28;20653;-72
2021/09/26 05:49:15;;;;;;;10.30;6.90;;;16.50;99.90;;;;;;5044931;28;20184;-72
2021/09/26 05:51:41;;;;;;;8.00;7.20;;;16.50;99.90;;;;;;5046277;28;20183;-72
2021/09/26 05:54:07;;;;;;;6.63;5.90;;;16.50;99.90;;;;;;5043911;28;20252;-72
2021/09/26 05:56:32;;;;;;;7.50;6.80;;;16.60;99.90;;;;;;5045915;28;20549;-73
2021/09/26 05:58:58;;;;;;;8.87;6.60;;;16.60;99.90;;;;;;5047515;28;20205;-73
2021/09/26 06:01:23;;;;;;;8.73;7.47;;;16.60;99.90;;;;;;5045207;28;20183;-73
2021/09/26 06:03:49;;;;;;;8.30;7.00;;;16.70;99.90;;;;;;5043578;28;20686;-73
2021/09/26 06:06:14;;;;;;;8.20;6.60;;;16.80;99.90;;;;;;5050052;28;20556;-72
2021/09/26 06:08:40;;;;;;;7.57;6.87;;;16.80;99.90;;;;;;5047948;28;20183;-72
2021/09/26 06:11:05;;;;;;;8.80;6.80;;;16.90;99.90;;;;;;5049584;28;20565;-72
2021/09/26 06:13:32;;;;;;;6.80;6.10;;;16.90;99.90;;;;;;5048590;28;20565;-72
2021/09/26 06:15:59;;;;;;;7.00;6.30;;;17.00;99.90;;;;;;5042842;28;20654;-72
2021/09/26 06:18:25;;;;;;;8.00;6.90;;;17.10;99.90;;;;;;5044926;28;20418;-72
2021/09/26 06:20:51;;;;;;;7.73;6.50;;;17.10;99.90;;;;;;5046974;28;20484;-72
2021/09/26 06:23:17;;;;;;;7.93;6.63;;;17.20;99.90;;;;;;5037365;28;20431;-72
2021/09/26 06:25:43;;;;;;;10.43;6.83;;;17.30;99.90;;;;;;5045331;28;20454;-72
2021/09/26 06:28:08;;;;;;;6.90;6.10;;;17.30;99.90;;;;;;5043628;28;20418;-72
2021/09/26 06:30:36;;;;;;;8.23;6.70;;;17.30;99.90;;;;;;5046651;28;20246;-72
2021/09/26 06:33:02;;;;;;;7.73;6.93;;;17.40;99.90;;;;;;5042770;28;20546;-72
2021/09/26 06:35:28;;;;;;;7.30;6.60;;;17.40;99.90;;;;;;5051612;28;20434;-72
2021/09/26 06:37:54;;;;;;;7.93;6.27;;;17.50;99.90;;;;;;5048965;28;20426;-72
2021/09/26 06:40:20;;;;;;;9.00;6.97;;;17.50;99.90;;;;;;5051458;28;20265;-72
2021/09/26 06:42:46;;;;;;;7.67;6.37;;;17.50;99.90;;;;;;5049934;28;20411;-73
2021/09/26 06:45:12;;;;;;;7.43;6.63;;;17.60;99.90;;;;;;5046246;28;20473;-73
2021/09/26 06:47:38;;;;;;;7.57;6.87;;;17.60;99.90;;;;;;5049371;28;20172;-73
2021/09/26 06:50:06;;;;;;;7.43;6.60;;;17.70;99.90;;;;;;5051624;28;20410;-73
2021/09/26 06:52:31;;;;;;;9.40;6.60;;;17.80;99.90;;;;;;5047511;28;20792;-72
2021/09/26 06:54:57;;;;;;;6.23;5.47;;;17.80;99.90;;;;;;5054184;28;20410;-73
2021/09/26 06:57:23;;;;;;;8.20;7.30;;;17.90;99.90;;;;;;5043013;28;20173;-73
2021/09/26 06:59:48;;;;;;;7.63;6.50;;;18.00;99.90;;;;;;5046657;28;20261;-73
2021/09/26 07:02:17;;;;;;;13.43;8.33;;;18.00;99.90;;;;;;5043570;28;20259;-73
2021/09/26 07:04:43;;;;;;;8.10;7.30;;;18.00;99.90;;;;;;5048407;28;20692;-73
2021/09/26 07:07:09;;;;;;;8.23;6.30;;;18.10;99.90;;;;;;5044822;28;20542;-73
2021/09/26 07:09:34;;;;;;;9.87;8.83;;;18.10;99.90;;;;;;5050423;28;20187;-73
2021/09/26 07:12:00;;;;;;;8.70;6.60;;;18.10;99.90;;;;;;5049990;28;20234;-73
2021/09/26 07:14:26;;;;;;;6.80;6.20;;;18.20;99.90;;;;;;5047952;28;20176;-73
2021/09/26 07:16:51;;;;;;;6.23;5.60;;;18.20;99.90;;;;;;5043859;28;20249;-73
2021/09/26 07:19:18;;;;;;;6.90;6.30;;;18.30;99.90;;;;;;5049657;28;20456;-72
2021/09/26 07:21:43;;;;;;;10.03;5.43;;;18.40;99.90;;;;;;5048490;28;20176;-73
2021/09/26 07:24:09;;;;;;;6.47;5.80;;;18.40;99.90;;;;;;5053115;28;20417;-73
2021/09/26 07:26:35;;;;;;;6.47;5.20;;;18.50;99.90;;;;;;5045961;28;20211;-73
2021/09/26 07:29:01;;;;;;;7.87;6.40;;;18.60;99.90;;;;;;5047452;28;20535;-73
2021/09/26 07:31:27;;;;;;;6.40;5.77;;;18.80;99.90;;;;;;5045846;28;20176;-73
2021/09/26 07:33:53;;;;;;;6.70;6.00;;;18.90;99.90;;;;;;5046702;28;20837;-73
2021/09/26 07:36:18;;;;;;;5.93;5.23;;;18.90;99.90;;;;;;5043560;28;20431;-73
2021/09/26 07:38:44;;;;;;;9.97;7.00;;;19.00;99.90;;;;;;5044112;28;20235;-73
2021/09/26 07:41:09;;;;;;;6.40;5.80;;;19.10;99.90;;;;;;5050662;28;20184;-73
2021/09/26 07:43:35;;;;;;;8.70;6.30;;;19.20;99.90;;;;;;5047701;28;20183;-73
2021/09/26 07:46:00;;;;;;;6.40;5.60;;;19.30;99.90;;;;;;5046365;28;20621;-73
2021/09/26 07:48:26;;;;;;;6.87;6.17;;;19.30;99.90;;;;;;5048979;28;20673;-73
2021/09/26 07:50:52;;;;;;;6.40;5.80;;;19.40;99.90;;;;;;5044989;28;20185;-73
2021/09/26 07:53:18;;;;;;;6.60;5.47;;;19.50;99.90;;;;;;5042276;28;20665;-73
2021/09/26 07:55:44;;;;;;;6.50;5.57;;;19.50;99.90;;;;;;5041244;28;20464;-73
2021/09/26 07:58:10;;;;;;;5.53;5.03;;;19.60;99.90;;;;;;5044142;28;20418;-73
2021/09/26 08:00:35;;;;;;;7.77;6.43;;;19.70;99.90;;;;;;5048444;28;20196;-73
2021/09/26 08:03:01;;;;;;;6.63;5.20;;;19.70;99.90;;;;;;5045244;28;20954;-73
2021/09/26 08:05:27;;;;;;;7.50;6.10;;;19.70;99.90;;;;;;5045292;28;20223;-73
2021/09/26 08:07:53;;;;;;;6.17;5.50;;;19.70;99.90;;;;;;5042038;28;20211;-73
2021/09/26 08:10:18;;;;;;;6.20;5.60;;;19.70;99.90;;;;;;5037041;28;20407;-73
2021/09/26 08:12:44;;;;;;;6.70;6.00;;;19.60;99.90;;;;;;5043804;28;20645;-73
2021/09/26 08:15:11;;;;;;;7.47;5.70;;;19.60;99.90;;;;;;5049011;28;20188;-73
2021/09/26 08:17:36;;;;;;;7.53;6.67;;;19.60;99.90;;;;;;5045617;28;20603;-73
2021/09/26 08:20:03;;;;;;;6.57;5.97;;;19.60;99.90;;;;;;5047982;28;20464;-73
2021/09/26 08:22:29;;;;;;;11.90;6.57;;;19.60;99.90;;;;;;5040210;28;20184;-73
2021/09/26 08:24:56;;;;;;;6.97;6.37;;;19.60;99.90;;;;;;5045155;28;20808;-74
2021/09/26 08:27:23;;;;;;;7.20;5.53;;;19.60;99.90;;;;;;5041966;28;20183;-73
2021/09/26 08:29:48;;;;;;;8.33;6.53;;;19.70;99.90;;;;;;5042454;28;20414;-73
2021/09/26 08:32:14;;;;;;;7.10;6.40;;;19.70;99.90;;;;;;5046127;28;20476;-73
2021/09/26 08:34:40;;;;;;;5.90;5.30;;;19.70;99.90;;;;;;5039104;28;20189;-73
2021/09/26 08:37:05;;;;;;;8.20;6.47;;;19.80;99.90;;;;;;5047608;28;20192;-73
2021/09/26 08:39:31;;;;;;;7.47;6.60;;;19.80;99.90;;;;;;5047110;28;20234;-73
2021/09/26 08:41:57;;;;;;;7.07;6.17;;;19.90;99.90;;;;;;5047562;28;20191;-73
2021/09/26 08:44:25;;;;;;;6.30;5.47;;;19.90;99.90;;;;;;5047288;28;20219;-73
2021/09/26 08:46:52;;;;;;;7.30;6.43;;;19.90;99.90;;;;;;5046493;28;20216;-73
2021/09/26 08:49:18;;;;;;;6.63;5.93;;;19.90;99.90;;;;;;5046857;28;20430;-73
2021/09/26 08:51:46;;;;;;;7.77;6.23;;;19.90;99.90;;;;;;5049573;28;20434;-74
2021/09/26 08:54:12;;;;;;;6.70;5.70;;;20.00;99.90;;;;;;5046585;28;20164;-73
2021/09/26 08:56:40;;;;;;;7.53;6.43;;;20.00;99.90;;;;;;5048010;28;20943;-73
2021/09/26 08:59:05;;;;;;;6.43;5.70;;;20.10;99.90;;;;;;5043223;28;20526;-73
2021/09/26 09:01:31;;;;;;;7.10;6.40;;;20.20;99.90;;;;;;5048103;28;20835;-74
2021/09/26 09:03:56;;;;;;;6.57;5.67;;;20.20;99.90;;;;;;5041112;28;20238;-74
2021/09/26 09:06:56;;;;;;;6.53;5.70;;;20.20;99.90;;;;;;5048329;28;20287;-74
2021/09/26 09:09:22;;;;;;;8.00;6.27;;;20.30;99.90;;;;;;5041076;28;20168;-74
2021/09/26 09:12:05;;;;;;;5.90;5.40;;;20.30;99.90;;;;;;5047533;28;20411;-74
2021/09/26 09:14:52;;;;;;;6.00;5.40;;;20.30;99.90;;;;;;5046704;28;20721;-74
2021/09/26 09:20:25;;;;;;;6.30;5.70;;;20.30;99.90;;;;;;5117579;27;20574;-73
2021/09/26 09:22:56;;;;;;;10.00;8.10;;;20.40;99.90;;;;;;5109578;28;20408;-73
2021/09/26 09:28:08;;;;;;;6.63;5.93;;;20.50;99.90;;;;;;5091503;27;20949;-75
2021/09/26 09:30:39;;;;;;;8.17;5.70;;;20.60;99.90;;;;;;5071644;28;20946;-75
2021/09/26 09:33:05;;;;;;;6.70;6.00;;;20.70;99.90;;;;;;5072546;28;20413;-75
2021/09/26 09:35:40;;;;;;;10.17;5.60;;;20.70;99.90;;;;;;5068356;28;20416;-75
2021/09/26 09:38:06;;;;;;;6.80;6.10;;;20.80;99.90;;;;;;5074732;28;20415;-75
2021/09/26 09:40:32;;;;;;;6.53;5.97;;;20.90;99.90;;;;;;5072903;28;20436;-75
2021/09/26 09:42:58;;;;;;;8.37;5.33;;;21.00;99.90;;;;;;5074390;28;20898;-74
2021/09/26 09:56:23;;;;;;;4.93;4.23;;;21.20;99.90;;;;;;5104482;27;21033;-73
2021/09/26 09:59:04;;;;;;;4.73;4.30;;;21.20;99.90;;;;;;5089463;28;20456;-73
2021/09/26 10:01:32;;;;;;;8.43;4.47;;;21.20;99.90;;;;;;5089496;28;20413;-73
2021/09/26 10:04:05;;;;;;;5.13;4.03;;;21.10;99.90;;;;;;5089315;28;20452;-73
2021/09/26 10:06:35;;;;;;;5.10;4.57;;;21.10;99.90;;;;;;5089613;28;20827;-73
2021/09/26 10:14:27;;;;;;;4.80;4.40;;;21.20;99.90;;;;;;5113674;27;21119;-74
2021/09/26 10:16:55;;;;;;;7.30;4.73;;;21.20;99.90;;;;;;5113876;28;20418;-74
2021/09/26 10:19:22;;;;;;;4.53;3.97;;;21.10;99.90;;;;;;5109627;28;20444;-74
2021/09/26 10:21:51;;;;;;;4.63;4.10;;;21.20;99.90;;;;;;5106511;28;20420;-74
2021/09/26 10:24:20;;;;;;;4.20;3.80;;;21.20;99.90;;;;;;5108833;28;20404;-74
2021/09/26 10:26:46;;;;;;;6.07;4.33;;;21.20;99.90;;;;;;5104295;28;20424;-74
2021/09/26 10:29:13;;;;;;;6.20;5.00;;;21.20;99.90;;;;;;5113101;28;20406;-74
2021/09/26 10:31:40;;;;;;;5.53;4.50;;;21.20;99.90;;;;;;5111183;28;20412;-74
2021/09/26 10:34:07;;;;;;;5.70;4.47;;;21.30;99.90;;;;;;5109180;28;20837;-74
2021/09/26 10:36:35;;;;;;;4.40;3.90;;;21.30;99.90;;;;;;5110696;28;20502;-74
2021/09/26 10:39:04;;;;;;;5.37;4.27;;;21.30;99.90;;;;;;5108612;28;20400;-74
2021/09/26 10:41:30;;;;;;;6.00;4.40;;;21.30;99.90;;;;;;5109418;28;20502;-74
2021/09/26 10:43:57;;;;;;;6.17;4.20;;;21.30;99.90;;;;;;5110946;28;20917;-74
2021/09/26 10:46:25;;;;;;;5.20;4.70;;;21.30;99.90;;;;;;5110432;28;20218;-74
2021/09/26 10:49:14;;;;;;;5.07;4.57;;;21.30;99.90;;;;;;5112776;28;20415;-74
2021/09/26 10:51:52;;;;;;;5.00;4.10;;;21.30;99.90;;;;;;5095529;28;20901;-74
2021/09/26 11:05:06;;;;;;;7.40;4.20;;;21.20;99.90;;;;;;5069247;28;21134;-75
2021/09/26 11:07:44;;;;;;;5.10;3.57;;;21.30;99.90;;;;;;5049665;28;20473;-75
2021/09/26 11:10:10;;;;;;;5.67;5.00;;;21.30;99.90;;;;;;5049699;28;20492;-75
2021/09/26 11:17:57;;;;;;;4.77;4.37;;;21.30;99.90;;;;;;5135670;27;21023;-73
2021/09/26 11:28:39;;;;;;;8.40;5.90;;;21.30;99.90;;;;;;5068641;28;20606;-75
2021/09/26 11:31:10;;;;;;;8.70;4.77;;;21.40;99.90;;;;;;5068127;28;20433;-76
2021/09/26 11:33:58;;;;;;;6.80;5.30;;;21.40;99.90;;;;;;5050885;28;20435;-76
2021/09/26 11:36:26;;;;;;;5.93;5.30;;;21.40;99.90;;;;;;5048263;28;20419;-76
2021/09/26 11:38:51;;;;;;;4.10;3.80;;;21.40;99.90;;;;;;5049182;28;20425;-76
2021/09/26 11:41:37;;;;;;;5.40;4.40;;;21.60;99.90;;;;;;5048994;28;20487;-76
2021/09/26 11:44:06;;;;;;;5.03;4.20;;;21.70;99.90;;;;;;5048926;28;20192;-76
2021/09/26 11:46:33;;;;;;;5.80;4.57;;;21.80;99.90;;;;;;5048468;28;20454;-76
2021/09/26 11:49:04;;;;;;;4.37;3.97;;;21.90;99.90;;;;;;5050399;28;20444;-76
2021/09/26 11:51:30;;;;;;;5.07;4.57;;;22.00;99.90;;;;;;5048489;28;20518;-76
2021/09/26 11:53:57;;;;;;;6.53;3.67;;;22.00;99.90;;;;;;5049019;28;20840;-76
2021/09/26 11:59:07;;;;;;;5.70;5.03;;;22.20;99.90;;;;;;5101815;27;21051;-74
2021/09/26 12:01:38;;;;;;;6.87;4.77;;;22.30;99.90;;;;;;5089362;28;20416;-75
2021/09/26 12:04:06;;;;;;;4.53;4.13;;;22.30;99.90;;;;;;5087473;28;20566;-75
2021/09/26 12:06:32;;;;;;;4.80;4.10;;;22.30;99.90;;;;;;5084507;28;20421;-74
2021/09/26 12:08:57;;;;;;;4.50;3.87;;;22.30;99.90;;;;;;5085095;28;20471;-75
2021/09/26 12:11:23;;;;;;;6.10;4.73;;;22.40;99.90;;;;;;5088592;28;20640;-75
2021/09/26 12:13:52;;;;;;;3.73;3.43;;;22.40;99.90;;;;;;5079705;28;20187;-74
2021/09/26 12:16:19;;;;;;;5.17;3.87;;;22.40;99.90;;;;;;5087835;28;20479;-75
2021/09/26 12:19:00;;;;;;;4.40;3.20;;;22.40;99.90;;;;;;5084022;28;20467;-75
2021/09/26 12:21:29;;;;;;;6.87;5.30;;;22.40;99.90;;;;;;5078415;28;20417;-74
2021/09/26 12:24:00;;;;;;;10.73;4.60;;;22.40;99.90;;;;;;5084995;28;20413;-74
2021/09/26 12:26:29;;;;;;;5.87;3.70;;;22.40;99.90;;;;;;5087785;28;20409;-74
2021/09/26 12:29:00;;;;;;;6.00;3.30;;;22.30;99.90;;;;;;5084799;28;20526;-75
2021/09/26 12:31:29;;;;;;;4.63;3.73;;;22.30;99.90;;;;;;5079468;28;20539;-74
2021/09/26 12:33:55;;;;;;;7.40;3.87;;;22.30;99.90;;;;;;5077618;28;20582;-74
2021/09/26 12:36:22;;;;;;;6.50;5.40;;;22.30;99.90;;;;;;5081927;28;20782;-74
2021/09/26 12:41:34;;;;;;;4.13;3.20;;;22.30;99.90;;;;;;5063692;28;20525;-74
2021/09/26 12:44:05;;;;;;;4.97;3.30;;;22.40;99.90;;;;;;5038249;28;20455;-74
2021/09/26 12:46:38;;;;;;;4.30;3.00;;;22.50;99.90;;;;;;5041193;28;20517;-74
2021/09/26 12:49:09;;;;;;;5.07;2.60;;;22.60;99.90;;;;;;5048413;28;20990;-74
2021/09/26 12:51:40;;;;;;;4.70;2.80;;;22.70;99.90;;;;;;5046315;28;20434;-74
2021/09/26 12:54:08;;;;;;;6.40;2.97;;;22.70;99.90;;;;;;5048239;28;20418;-74
2021/09/26 12:56:38;;;;;;;4.27;3.40;;;22.80;99.90;;;;;;5046634;28;20426;-74
2021/09/26 13:01:59;;;;;;;6.73;3.20;;;22.80;99.90;;;;;;5042357;28;20529;-74
2021/09/26 13:04:26;;;;;;;3.87;3.50;;;22.70;99.90;;;;;;5039560;28;20409;-75
2021/09/26 13:06:55;;;;;;;5.10;3.50;;;22.60;99.90;;;;;;5024632;28;20760;-75
2021/09/26 13:09:31;;;;;;;9.30;4.00;;;22.50;99.90;;;;;;5013565;28;20411;-75
2021/09/26 13:11:59;;;;;;;4.17;3.37;;;22.40;99.90;;;;;;5019908;28;20807;-74
2021/09/26 13:27:56;;;;;;;3.40;2.93;;;22.30;99.90;;;;;;5084639;27;20554;-74
2021/09/26 13:33:30;;;;;;;5.27;3.53;;;22.10;99.90;;;;;;5019083;27;20891;-74
2021/09/26 13:36:07;;;;;;;3.77;3.40;;;22.10;99.90;;;;;;5003784;28;20941;-74
2021/09/26 13:38:33;;;;;;;4.57;3.27;;;22.20;99.90;;;;;;5002114;28;20429;-74
2021/09/26 13:43:55;;;;;;;4.57;2.93;;;22.30;99.90;;;;;;5068299;28;20544;-75
2021/09/26 13:46:21;;;;;;;3.47;2.80;;;22.50;99.90;;;;;;5067572;28;20421;-76
2021/09/26 13:48:46;;;;;;;3.57;2.63;;;22.60;99.90;;;;;;5068568;28;20755;-75
2021/09/26 13:51:12;;;;;;;4.67;3.07;;;22.60;99.90;;;;;;5069138;28;20203;-74
2021/09/26 13:53:39;;;;;;;4.63;2.97;;;22.70;99.90;;;;;;5065989;28;20257;-76
2021/09/26 13:56:06;;;;;;;3.00;2.70;;;22.70;99.90;;;;;;5061312;28;20962;-74
2021/09/26 13:58:32;;;;;;;4.43;3.13;;;22.70;99.90;;;;;;5062490;28;20452;-74
2021/09/26 14:00:57;;;;;;;3.90;3.00;;;22.70;99.90;;;;;;5063549;28;20444;-74
2021/09/26 14:03:24;;;;;;;3.97;2.87;;;22.70;99.90;;;;;;5065580;28;20740;-75
2021/09/26 14:05:49;;;;;;;4.40;3.60;;;22.60;99.90;;;;;;5063347;28;20178;-74
2021/09/26 14:08:15;;;;;;;5.20;2.67;;;22.60;99.90;;;;;;5066267;28;20915;-74
2021/09/26 14:10:42;;;;;;;4.30;3.00;;;22.60;99.90;;;;;;5064690;28;20176;-74
2021/09/26 14:13:08;;;;;;;4.23;3.53;;;22.60;99.90;;;;;;5061298;28;20652;-74
2021/09/26 14:15:36;;;;;;;5.70;2.67;;;22.50;99.90;;;;;;5063882;28;20413;-74
2021/09/26 14:18:01;;;;;;;4.07;2.77;;;22.40;99.90;;;;;;5064508;28;20516;-74
2021/09/26 14:20:29;;;;;;;3.87;2.97;;;22.40;99.90;;;;;;5057954;28;20520;-74
2021/09/26 14:22:55;;;;;;;4.97;2.77;;;22.30;99.90;;;;;;5060852;28;20187;-74